sensor_id;sensor_type;location;lat;lon;timestamp;pressure;altitude;pressure_sealevel;temperature;humidity
13387;BME280;6763;48.524;9.044;2023-04-24T00:00:15;96815.16;;;16.00;50.87
13387;BME280;6763;48.524;9.044;2023-04-24T00:02:41;96794.34;;;15.98;50.85
13387;BME280;6763;48.524;9.044;2023-04-24T00:05:12;96786.59;;;15.97;50.77
13387;BME280;6763;48.524;9.044;2023-04-24T00:07:37;96784.00;;;15.97;50.75
13387;BME280;6763;48.524;9.044;2023-04-24T00:10:03;96794.50;;;15.95;50.59
13387;BME280;6763;48.524;9.044;2023-04-24T00:12:28;96796.38;;;15.93;50.70
13387;BME280;6763;48.524;9.044;2023-04-24T00:14:53;96802.59;;;15.91;50.89
13387;BME280;6763;48.524;9.044;2023-04-24T00:17:19;96803.44;;;15.91;51.09
13387;BME280;6763;48.524;9.044;2023-04-24T00:19:48;96807.75;;;15.92;50.84
13387;BME280;6763;48.524;9.044;2023-04-24T00:22:15;96805.78;;;15.96;50.86
13387;BME280;6763;48.524;9.044;2023-04-24T00:24:40;96802.00;;;16.01;50.45
13387;BME280;6763;48.524;9.044;2023-04-24T00:27:06;96809.34;;;16.10;50.15
13387;BME280;6763;48.524;9.044;2023-04-24T00:29:31;96813.28;;;16.18;50.10
13387;BME280;6763;48.524;9.044;2023-04-24T00:31:57;96813.97;;;16.21;49.96
13387;BME280;6763;48.524;9.044;2023-04-24T00:34:22;96806.78;;;16.25;49.86
13387;BME280;6763;48.524;9.044;2023-04-24T00:36:47;96805.91;;;16.24;49.83
13387;BME280;6763;48.524;9.044;2023-04-24T00:39:15;96804.25;;;16.23;50.07
13387;BME280;6763;48.524;9.044;2023-04-24T00:41:41;96801.72;;;16.22;49.86
13387;BME280;6763;48.524;9.044;2023-04-24T00:44:06;96804.31;;;16.22;50.01
13387;BME280;6763;48.524;9.044;2023-04-24T00:46:32;96799.22;;;16.20;49.94
13387;BME280;6763;48.524;9.044;2023-04-24T00:48:59;96790.53;;;16.20;49.81
13387;BME280;6763;48.524;9.044;2023-04-24T00:51:24;96787.91;;;16.20;49.91
13387;BME280;6763;48.524;9.044;2023-04-24T00:53:49;96774.38;;;16.13;50.15
13387;BME280;6763;48.524;9.044;2023-04-24T00:56:16;96783.03;;;16.13;50.27
13387;BME280;6763;48.524;9.044;2023-04-24T00:58:43;96787.44;;;16.13;50.23
13387;BME280;6763;48.524;9.044;2023-04-24T01:01:09;96786.59;;;16.12;50.57
13387;BME280;6763;48.524;9.044;2023-04-24T01:03:35;96783.97;;;16.12;50.22
13387;BME280;6763;48.524;9.044;2023-04-24T01:06:02;96791.13;;;16.09;50.63
13387;BME280;6763;48.524;9.044;2023-04-24T01:08:28;96786.59;;;15.97;51.21
13387;BME280;6763;48.524;9.044;2023-04-24T01:10:55;96791.56;;;15.86;51.92
13387;BME280;6763;48.524;9.044;2023-04-24T01:13:22;96790.66;;;15.71;52.37
13387;BME280;6763;48.524;9.044;2023-04-24T01:15:48;96788.53;;;15.62;52.90
13387;BME280;6763;48.524;9.044;2023-04-24T01:18:14;96785.50;;;15.54;53.38
13387;BME280;6763;48.524;9.044;2023-04-24T01:20:40;96783.16;;;15.49;53.56
13387;BME280;6763;48.524;9.044;2023-04-24T01:23:08;96777.47;;;15.41;53.89
13387;BME280;6763;48.524;9.044;2023-04-24T01:25:34;96763.09;;;15.34;53.98
13387;BME280;6763;48.524;9.044;2023-04-24T01:27:59;96763.41;;;15.28;54.21
13387;BME280;6763;48.524;9.044;2023-04-24T01:30:28;96756.75;;;15.23;54.69
13387;BME280;6763;48.524;9.044;2023-04-24T01:32:55;96761.16;;;15.22;54.91
13387;BME280;6763;48.524;9.044;2023-04-24T01:35:20;96755.16;;;15.20;54.86
13387;BME280;6763;48.524;9.044;2023-04-24T01:37:45;96754.34;;;15.20;55.16
13387;BME280;6763;48.524;9.044;2023-04-24T01:40:11;96753.38;;;15.21;55.19
13387;BME280;6763;48.524;9.044;2023-04-24T01:42:37;96754.09;;;15.24;54.97
13387;BME280;6763;48.524;9.044;2023-04-24T01:45:04;96753.06;;;15.27;55.09
13387;BME280;6763;48.524;9.044;2023-04-24T01:47:31;96756.34;;;15.30;55.11
13387;BME280;6763;48.524;9.044;2023-04-24T01:49:57;96758.78;;;15.33;55.22
13387;BME280;6763;48.524;9.044;2023-04-24T01:52:23;96760.47;;;15.34;55.41
13387;BME280;6763;48.524;9.044;2023-04-24T01:54:48;96753.41;;;15.36;55.36
13387;BME280;6763;48.524;9.044;2023-04-24T01:57:14;96772.50;;;15.37;55.92
13387;BME280;6763;48.524;9.044;2023-04-24T01:59:41;96767.28;;;15.37;56.15
13387;BME280;6763;48.524;9.044;2023-04-24T02:02:06;96776.13;;;15.34;56.09
13387;BME280;6763;48.524;9.044;2023-04-24T02:04:32;96770.91;;;15.34;56.35
13387;BME280;6763;48.524;9.044;2023-04-24T02:06:57;96778.81;;;15.33;56.79
13387;BME280;6763;48.524;9.044;2023-04-24T02:09:22;96768.56;;;15.30;56.57
13387;BME280;6763;48.524;9.044;2023-04-24T02:11:48;96772.22;;;15.26;56.69
13387;BME280;6763;48.524;9.044;2023-04-24T02:14:13;96776.59;;;15.25;56.67
13387;BME280;6763;48.524;9.044;2023-04-24T02:16:38;96770.63;;;15.23;56.52
13387;BME280;6763;48.524;9.044;2023-04-24T02:19:04;96766.28;;;15.24;56.72
13387;BME280;6763;48.524;9.044;2023-04-24T02:21:29;96768.03;;;15.23;56.70
13387;BME280;6763;48.524;9.044;2023-04-24T02:23:56;96772.31;;;15.24;56.81
13387;BME280;6763;48.524;9.044;2023-04-24T02:26:21;96764.56;;;15.23;57.11
13387;BME280;6763;48.524;9.044;2023-04-24T02:28:47;96762.06;;;15.21;57.08
13387;BME280;6763;48.524;9.044;2023-04-24T02:31:12;96760.31;;;15.22;57.18
13387;BME280;6763;48.524;9.044;2023-04-24T02:33:37;96757.69;;;15.22;57.10
13387;BME280;6763;48.524;9.044;2023-04-24T02:36:03;96760.31;;;15.22;57.53
13387;BME280;6763;48.524;9.044;2023-04-24T02:38:29;96756.84;;;15.21;57.26
13387;BME280;6763;48.524;9.044;2023-04-24T02:40:54;96760.13;;;15.25;57.29
13387;BME280;6763;48.524;9.044;2023-04-24T02:43:20;96763.50;;;15.27;57.42
13387;BME280;6763;48.524;9.044;2023-04-24T02:45:45;96768.56;;;15.30;57.39
13387;BME280;6763;48.524;9.044;2023-04-24T02:48:11;96769.22;;;15.33;57.34
13387;BME280;6763;48.524;9.044;2023-04-24T02:50:36;96767.41;;;15.35;57.28
13387;BME280;6763;48.524;9.044;2023-04-24T02:53:01;96774.09;;;15.39;57.58
13387;BME280;6763;48.524;9.044;2023-04-24T02:55:27;96787.06;;;15.41;57.58
13387;BME280;6763;48.524;9.044;2023-04-24T02:57:52;96785.28;;;15.41;57.84
13387;BME280;6763;48.524;9.044;2023-04-24T03:00:17;96775.03;;;15.38;57.88
13387;BME280;6763;48.524;9.044;2023-04-24T03:02:43;96783.03;;;15.35;58.05
13387;BME280;6763;48.524;9.044;2023-04-24T03:05:08;96774.69;;;15.29;58.05
13387;BME280;6763;48.524;9.044;2023-04-24T03:07:34;96774.94;;;15.24;58.13
13387;BME280;6763;48.524;9.044;2023-04-24T03:10:00;96775.09;;;15.21;58.45
13387;BME280;6763;48.524;9.044;2023-04-24T03:12:25;96773.59;;;15.17;58.19
13387;BME280;6763;48.524;9.044;2023-04-24T03:14:51;96764.16;;;15.15;58.55
13387;BME280;6763;48.524;9.044;2023-04-24T03:17:16;96775.50;;;15.14;58.45
13387;BME280;6763;48.524;9.044;2023-04-24T03:19:41;96764.22;;;15.13;58.70
13387;BME280;6763;48.524;9.044;2023-04-24T03:22:07;96754.66;;;15.14;58.47
13387;BME280;6763;48.524;9.044;2023-04-24T03:24:34;96750.34;;;15.13;58.92
13387;BME280;6763;48.524;9.044;2023-04-24T03:26:59;96747.00;;;15.11;58.71
13387;BME280;6763;48.524;9.044;2023-04-24T03:29:25;96754.97;;;15.08;58.88
13387;BME280;6763;48.524;9.044;2023-04-24T03:31:50;96753.38;;;15.05;58.81
13387;BME280;6763;48.524;9.044;2023-04-24T03:34:16;96752.75;;;15.00;59.19
13387;BME280;6763;48.524;9.044;2023-04-24T03:36:41;96753.75;;;14.98;59.36
13387;BME280;6763;48.524;9.044;2023-04-24T03:39:07;96743.50;;;14.95;59.20
13387;BME280;6763;48.524;9.044;2023-04-24T03:41:32;96754.94;;;14.92;58.44
13387;BME280;6763;48.524;9.044;2023-04-24T03:43:58;96744.59;;;14.90;58.80
13387;BME280;6763;48.524;9.044;2023-04-24T03:46:23;96737.69;;;14.89;58.83
13387;BME280;6763;48.524;9.044;2023-04-24T03:48:49;96736.09;;;14.87;58.56
13387;BME280;6763;48.524;9.044;2023-04-24T03:51:14;96742.31;;;14.84;58.24
13387;BME280;6763;48.524;9.044;2023-04-24T03:53:40;96742.69;;;14.77;58.33
13387;BME280;6763;48.524;9.044;2023-04-24T03:56:05;96753.38;;;14.72;58.18
13387;BME280;6763;48.524;9.044;2023-04-24T03:58:30;96751.91;;;14.67;58.21
13387;BME280;6763;48.524;9.044;2023-04-24T04:00:56;96750.41;;;14.63;58.44
13387;BME280;6763;48.524;9.044;2023-04-24T04:03:23;96753.16;;;14.60;58.68
13387;BME280;6763;48.524;9.044;2023-04-24T04:05:48;96756.75;;;14.57;58.39
13387;BME280;6763;48.524;9.044;2023-04-24T04:08:14;96765.38;;;14.58;58.61
13387;BME280;6763;48.524;9.044;2023-04-24T04:10:40;96766.84;;;14.63;59.04
13387;BME280;6763;48.524;9.044;2023-04-24T04:13:05;96772.75;;;14.67;59.01
13387;BME280;6763;48.524;9.044;2023-04-24T04:15:31;96763.84;;;14.71;58.56
13387;BME280;6763;48.524;9.044;2023-04-24T04:17:57;96770.66;;;14.73;58.79
13387;BME280;6763;48.524;9.044;2023-04-24T04:20:22;96779.16;;;14.77;58.44
13387;BME280;6763;48.524;9.044;2023-04-24T04:22:47;96774.56;;;14.82;58.30
13387;BME280;6763;48.524;9.044;2023-04-24T04:25:13;96781.22;;;14.87;58.62
13387;BME280;6763;48.524;9.044;2023-04-24T04:27:38;96791.50;;;14.90;58.63
13387;BME280;6763;48.524;9.044;2023-04-24T04:30:04;96795.69;;;14.93;58.65
13387;BME280;6763;48.524;9.044;2023-04-24T04:32:36;96801.91;;;14.90;58.58
13387;BME280;6763;48.524;9.044;2023-04-24T04:35:02;96829.81;;;14.88;58.65
13387;BME280;6763;48.524;9.044;2023-04-24T04:37:32;96803.06;;;14.85;59.08
13387;BME280;6763;48.524;9.044;2023-04-24T04:39:58;96818.00;;;14.81;58.78
13387;BME280;6763;48.524;9.044;2023-04-24T04:42:24;96821.00;;;14.74;59.03
13387;BME280;6763;48.524;9.044;2023-04-24T04:44:50;96832.41;;;14.71;59.40
13387;BME280;6763;48.524;9.044;2023-04-24T04:47:16;96828.19;;;14.69;59.13
13387;BME280;6763;48.524;9.044;2023-04-24T04:49:42;96829.03;;;14.69;59.56
13387;BME280;6763;48.524;9.044;2023-04-24T04:52:08;96842.16;;;14.68;59.39
13387;BME280;6763;48.524;9.044;2023-04-24T04:54:34;96843.81;;;14.69;59.84
13387;BME280;6763;48.524;9.044;2023-04-24T04:56:59;96846.53;;;14.67;59.92
13387;BME280;6763;48.524;9.044;2023-04-24T04:59:25;96855.25;;;14.66;59.53
13387;BME280;6763;48.524;9.044;2023-04-24T05:01:51;96857.38;;;14.58;59.62
13387;BME280;6763;48.524;9.044;2023-04-24T05:04:16;96851.41;;;14.56;59.92
13387;BME280;6763;48.524;9.044;2023-04-24T05:06:41;96846.97;;;14.58;59.67
13387;BME280;6763;48.524;9.044;2023-04-24T05:09:07;96856.63;;;14.56;59.35
13387;BME280;6763;48.524;9.044;2023-04-24T05:11:32;96855.84;;;14.54;59.27
13387;BME280;6763;48.524;9.044;2023-04-24T05:13:57;96860.31;;;14.52;58.93
13387;BME280;6763;48.524;9.044;2023-04-24T05:16:26;96873.53;;;14.48;58.68
13387;BME280;6763;48.524;9.044;2023-04-24T05:18:56;96882.28;;;14.47;58.42
13387;BME280;6763;48.524;9.044;2023-04-24T05:21:21;96890.31;;;14.42;58.16
13387;BME280;6763;48.524;9.044;2023-04-24T05:23:46;96900.91;;;14.38;58.13
13387;BME280;6763;48.524;9.044;2023-04-24T05:26:13;96903.53;;;14.38;57.44
13387;BME280;6763;48.524;9.044;2023-04-24T05:28:38;96903.84;;;14.30;57.29
13387;BME280;6763;48.524;9.044;2023-04-24T05:31:03;96912.75;;;14.26;57.50
13387;BME280;6763;48.524;9.044;2023-04-24T05:33:29;96914.09;;;14.16;57.06
13387;BME280;6763;48.524;9.044;2023-04-24T05:35:55;96903.81;;;14.13;57.08
13387;BME280;6763;48.524;9.044;2023-04-24T05:38:21;96913.09;;;14.18;57.06
13387;BME280;6763;48.524;9.044;2023-04-24T05:40:46;96914.72;;;14.21;57.34
13387;BME280;6763;48.524;9.044;2023-04-24T05:43:12;96926.66;;;14.25;57.38
13387;BME280;6763;48.524;9.044;2023-04-24T05:45:38;96930.88;;;14.27;57.04
13387;BME280;6763;48.524;9.044;2023-04-24T05:48:03;96936.81;;;14.31;57.07
13387;BME280;6763;48.524;9.044;2023-04-24T05:50:29;96933.16;;;14.35;56.75
13387;BME280;6763;48.524;9.044;2023-04-24T05:52:54;96934.84;;;14.36;56.74
13387;BME280;6763;48.524;9.044;2023-04-24T05:55:20;96943.00;;;14.47;56.83
13387;BME280;6763;48.524;9.044;2023-04-24T05:57:45;96949.50;;;14.56;56.62
13387;BME280;6763;48.524;9.044;2023-04-24T06:00:11;96953.53;;;14.63;55.82
13387;BME280;6763;48.524;9.044;2023-04-24T06:02:39;96948.09;;;14.67;55.96
13387;BME280;6763;48.524;9.044;2023-04-24T06:05:05;96950.69;;;14.67;55.84
13387;BME280;6763;48.524;9.044;2023-04-24T06:07:32;96950.63;;;14.69;55.57
13387;BME280;6763;48.524;9.044;2023-04-24T06:09:57;96946.25;;;14.69;55.54
13387;BME280;6763;48.524;9.044;2023-04-24T06:12:22;96950.63;;;14.69;55.21
13387;BME280;6763;48.524;9.044;2023-04-24T06:14:48;96943.66;;;14.69;55.18
13387;BME280;6763;48.524;9.044;2023-04-24T06:17:13;96948.72;;;14.72;55.02
13387;BME280;6763;48.524;9.044;2023-04-24T06:19:39;96953.63;;;14.78;55.48
13387;BME280;6763;48.524;9.044;2023-04-24T06:22:04;96961.13;;;14.84;55.04
13387;BME280;6763;48.524;9.044;2023-04-24T06:24:30;96945.22;;;14.90;55.46
13387;BME280;6763;48.524;9.044;2023-04-24T06:26:55;96947.34;;;15.00;55.04
13387;BME280;6763;48.524;9.044;2023-04-24T06:29:22;96930.41;;;15.08;55.00
13387;BME280;6763;48.524;9.044;2023-04-24T06:31:47;96927.44;;;15.16;54.77
13387;BME280;6763;48.524;9.044;2023-04-24T06:34:12;96935.72;;;15.24;54.20
13387;BME280;6763;48.524;9.044;2023-04-24T06:36:38;96932.56;;;15.34;53.66
13387;BME280;6763;48.524;9.044;2023-04-24T06:39:03;96947.66;;;15.45;53.32
13387;BME280;6763;48.524;9.044;2023-04-24T06:41:29;96939.69;;;15.65;53.04
13387;BME280;6763;48.524;9.044;2023-04-24T06:43:54;96947.63;;;15.79;51.95
13387;BME280;6763;48.524;9.044;2023-04-24T06:46:20;96947.81;;;15.92;51.42
13387;BME280;6763;48.524;9.044;2023-04-24T06:48:48;96942.22;;;16.15;51.05
13387;BME280;6763;48.524;9.044;2023-04-24T06:51:14;96946.28;;;16.36;49.76
13387;BME280;6763;48.524;9.044;2023-04-24T06:53:39;96944.00;;;16.46;49.00
13387;BME280;6763;48.524;9.044;2023-04-24T06:56:05;96940.06;;;16.54;48.35
13387;BME280;6763;48.524;9.044;2023-04-24T06:58:30;96947.53;;;16.76;48.35
13387;BME280;6763;48.524;9.044;2023-04-24T07:00:55;96935.56;;;17.02;47.13
13387;BME280;6763;48.524;9.044;2023-04-24T07:03:21;96940.13;;;17.14;46.69
13387;BME280;6763;48.524;9.044;2023-04-24T07:05:46;96939.56;;;17.23;46.57
13387;BME280;6763;48.524;9.044;2023-04-24T07:08:12;96936.69;;;17.27;46.30
13387;BME280;6763;48.524;9.044;2023-04-24T07:10:39;96949.00;;;17.25;46.03
13387;BME280;6763;48.524;9.044;2023-04-24T07:13:04;96955.94;;;17.26;46.47
13387;BME280;6763;48.524;9.044;2023-04-24T07:15:29;96952.56;;;17.24;46.11
13387;BME280;6763;48.524;9.044;2023-04-24T07:17:55;96966.97;;;17.31;45.69
13387;BME280;6763;48.524;9.044;2023-04-24T07:20:21;96966.59;;;17.53;45.00
13387;BME280;6763;48.524;9.044;2023-04-24T07:22:46;96965.19;;;17.62;42.77
13387;BME280;6763;48.524;9.044;2023-04-24T07:25:13;96979.59;;;17.69;41.81
13387;BME280;6763;48.524;9.044;2023-04-24T07:27:38;96985.94;;;17.65;41.89
13387;BME280;6763;48.524;9.044;2023-04-24T07:30:04;96986.56;;;17.54;41.61
13387;BME280;6763;48.524;9.044;2023-04-24T07:32:30;96981.53;;;17.35;40.55
13387;BME280;6763;48.524;9.044;2023-04-24T07:34:56;96995.47;;;17.36;41.03
13387;BME280;6763;48.524;9.044;2023-04-24T07:37:21;96995.94;;;17.58;40.81
13387;BME280;6763;48.524;9.044;2023-04-24T07:39:47;96957.44;;;17.74;40.04
13387;BME280;6763;48.524;9.044;2023-04-24T07:42:12;96986.44;;;17.71;38.75
13387;BME280;6763;48.524;9.044;2023-04-24T07:44:38;96991.56;;;17.73;39.20
13387;BME280;6763;48.524;9.044;2023-04-24T07:47:03;96984.56;;;17.73;39.17
13387;BME280;6763;48.524;9.044;2023-04-24T07:49:29;96999.97;;;17.78;38.72
13387;BME280;6763;48.524;9.044;2023-04-24T07:51:54;97004.69;;;17.87;38.70
13387;BME280;6763;48.524;9.044;2023-04-24T07:54:20;97001.50;;;17.96;37.98
13387;BME280;6763;48.524;9.044;2023-04-24T07:56:45;97006.06;;;17.92;38.15
13387;BME280;6763;48.524;9.044;2023-04-24T07:59:11;97005.13;;;17.93;37.40
13387;BME280;6763;48.524;9.044;2023-04-24T08:01:36;97019.25;;;17.91;37.73
13387;BME280;6763;48.524;9.044;2023-04-24T08:04:02;97011.03;;;17.97;37.04
13387;BME280;6763;48.524;9.044;2023-04-24T08:06:27;97016.81;;;17.88;35.81
13387;BME280;6763;48.524;9.044;2023-04-24T08:08:56;97021.19;;;17.73;36.26
13387;BME280;6763;48.524;9.044;2023-04-24T08:11:21;97023.19;;;17.84;36.59
13387;BME280;6763;48.524;9.044;2023-04-24T08:13:47;97035.63;;;17.94;36.84
13387;BME280;6763;48.524;9.044;2023-04-24T08:16:12;97050.72;;;18.05;35.57
13387;BME280;6763;48.524;9.044;2023-04-24T08:18:38;97035.72;;;17.93;34.42
13387;BME280;6763;48.524;9.044;2023-04-24T08:21:03;97050.84;;;17.88;34.47
13387;BME280;6763;48.524;9.044;2023-04-24T08:23:31;97052.69;;;17.72;34.49
13387;BME280;6763;48.524;9.044;2023-04-24T08:25:56;97047.00;;;17.50;34.71
13387;BME280;6763;48.524;9.044;2023-04-24T08:28:22;97059.53;;;17.29;34.48
13387;BME280;6763;48.524;9.044;2023-04-24T08:30:48;97051.16;;;17.22;34.84
13387;BME280;6763;48.524;9.044;2023-04-24T08:33:14;97062.63;;;17.35;34.97
13387;BME280;6763;48.524;9.044;2023-04-24T08:35:40;97057.63;;;17.47;34.82
13387;BME280;6763;48.524;9.044;2023-04-24T08:38:05;97056.31;;;17.55;34.55
13387;BME280;6763;48.524;9.044;2023-04-24T08:40:33;97048.88;;;17.48;33.91
13387;BME280;6763;48.524;9.044;2023-04-24T08:42:59;97056.19;;;17.57;34.30
13387;BME280;6763;48.524;9.044;2023-04-24T08:45:25;97043.03;;;17.58;34.26
13387;BME280;6763;48.524;9.044;2023-04-24T08:47:52;97063.72;;;17.77;34.18
13387;BME280;6763;48.524;9.044;2023-04-24T08:50:20;97058.81;;;18.01;33.19
13387;BME280;6763;48.524;9.044;2023-04-24T08:52:50;97064.94;;;18.43;32.15
13387;BME280;6763;48.524;9.044;2023-04-24T08:55:18;97080.97;;;18.53;31.92
13387;BME280;6763;48.524;9.044;2023-04-24T08:57:50;97087.03;;;18.82;31.61
13387;BME280;6763;48.524;9.044;2023-04-24T09:00:21;97071.28;;;18.82;31.34
13387;BME280;6763;48.524;9.044;2023-04-24T09:02:49;97088.44;;;18.87;31.28
13387;BME280;6763;48.524;9.044;2023-04-24T09:05:16;97062.28;;;18.86;31.83
13387;BME280;6763;48.524;9.044;2023-04-24T09:07:45;97075.78;;;18.80;32.06
13387;BME280;6763;48.524;9.044;2023-04-24T09:10:12;97073.38;;;18.77;32.44
13387;BME280;6763;48.524;9.044;2023-04-24T09:12:38;97054.88;;;18.51;32.17
13387;BME280;6763;48.524;9.044;2023-04-24T09:15:08;97081.59;;;18.42;32.51
13387;BME280;6763;48.524;9.044;2023-04-24T09:17:33;97071.38;;;18.38;32.44
13387;BME280;6763;48.524;9.044;2023-04-24T09:20:00;97092.06;;;18.42;32.03
13387;BME280;6763;48.524;9.044;2023-04-24T09:22:30;97082.38;;;18.58;32.19
13387;BME280;6763;48.524;9.044;2023-04-24T09:25:03;97090.78;;;18.78;31.72
13387;BME280;6763;48.524;9.044;2023-04-24T09:27:29;97070.38;;;19.09;31.58
13387;BME280;6763;48.524;9.044;2023-04-24T09:29:55;97087.03;;;19.23;31.45
13387;BME280;6763;48.524;9.044;2023-04-24T09:32:22;97095.19;;;19.18;31.61
13387;BME280;6763;48.524;9.044;2023-04-24T09:34:50;97087.34;;;19.04;31.79
13387;BME280;6763;48.524;9.044;2023-04-24T09:37:29;97091.81;;;18.75;31.38
13387;BME280;6763;48.524;9.044;2023-04-24T09:40:19;97095.56;;;18.71;31.20
13387;BME280;6763;48.524;9.044;2023-04-24T09:42:51;97116.25;;;18.76;30.81
13387;BME280;6763;48.524;9.044;2023-04-24T09:45:17;97105.13;;;18.72;30.71
13387;BME280;6763;48.524;9.044;2023-04-24T09:47:43;97117.38;;;18.72;30.88
13387;BME280;6763;48.524;9.044;2023-04-24T09:50:16;97113.63;;;18.76;31.20
13387;BME280;6763;48.524;9.044;2023-04-24T09:52:43;97129.72;;;18.84;31.33
13387;BME280;6763;48.524;9.044;2023-04-24T09:55:18;97123.56;;;18.85;30.29
13387;BME280;6763;48.524;9.044;2023-04-24T09:57:51;97134.41;;;18.79;30.68
13387;BME280;6763;48.524;9.044;2023-04-24T10:00:22;97111.00;;;18.62;30.42
13387;BME280;6763;48.524;9.044;2023-04-24T10:02:55;97139.28;;;18.71;30.45
13387;BME280;6763;48.524;9.044;2023-04-24T10:05:28;97138.06;;;18.90;30.35
13387;BME280;6763;48.524;9.044;2023-04-24T10:08:21;97151.25;;;19.03;29.46
13387;BME280;6763;48.524;9.044;2023-04-24T10:10:47;97116.19;;;19.18;28.59
13387;BME280;6763;48.524;9.044;2023-04-24T10:13:14;97117.13;;;19.58;28.11
13387;BME280;6763;48.524;9.044;2023-04-24T10:15:41;97103.00;;;20.25;27.41
13387;BME280;6763;48.524;9.044;2023-04-24T10:18:09;97114.66;;;20.71;26.93
13387;BME280;6763;48.524;9.044;2023-04-24T10:20:37;97108.25;;;20.63;26.12
13387;BME280;6763;48.524;9.044;2023-04-24T10:23:04;97105.22;;;20.56;26.47
13387;BME280;6763;48.524;9.044;2023-04-24T10:25:31;97135.81;;;20.45;26.91
13387;BME280;6763;48.524;9.044;2023-04-24T10:27:58;97113.41;;;20.26;26.65
13387;BME280;6763;48.524;9.044;2023-04-24T10:30:26;97121.56;;;20.09;27.36
13387;BME280;6763;48.524;9.044;2023-04-24T10:32:52;97146.97;;;19.96;28.14
13387;BME280;6763;48.524;9.044;2023-04-24T10:35:19;97151.34;;;19.83;27.75
13387;BME280;6763;48.524;9.044;2023-04-24T10:37:54;97152.44;;;19.66;27.57
13387;BME280;6763;48.524;9.044;2023-04-24T10:40:35;97150.97;;;19.48;27.40
13387;BME280;6763;48.524;9.044;2023-04-24T10:43:08;97154.38;;;19.36;28.10
13387;BME280;6763;48.524;9.044;2023-04-24T10:46:05;97158.88;;;19.34;28.91
13387;BME280;6763;48.524;9.044;2023-04-24T10:49:03;97170.97;;;19.37;29.15
13387;BME280;6763;48.524;9.044;2023-04-24T10:51:54;97170.72;;;19.27;29.71
13387;BME280;6763;48.524;9.044;2023-04-24T10:54:36;97183.00;;;19.12;30.14
13387;BME280;6763;48.524;9.044;2023-04-24T11:00:10;97181.44;;;18.96;30.72
13387;BME280;6763;48.524;9.044;2023-04-24T11:03:04;97184.41;;;18.90;30.72
13387;BME280;6763;48.524;9.044;2023-04-24T11:08:27;97180.66;;;18.94;30.73
13387;BME280;6763;48.524;9.044;2023-04-24T11:11:10;97187.03;;;19.04;30.60
13387;BME280;6763;48.524;9.044;2023-04-24T11:16:28;97184.50;;;19.02;31.23
13387;BME280;6763;48.524;9.044;2023-04-24T11:21:46;97191.72;;;18.99;30.53
13387;BME280;6763;48.524;9.044;2023-04-24T11:32:30;97207.34;;;18.86;30.60
13387;BME280;6763;48.524;9.044;2023-04-24T11:34:58;97213.78;;;18.52;31.10
13387;BME280;6763;48.524;9.044;2023-04-24T11:37:29;97201.09;;;18.45;31.49
13387;BME280;6763;48.524;9.044;2023-04-24T11:39:58;97218.84;;;18.26;32.06
13387;BME280;6763;48.524;9.044;2023-04-24T11:42:24;97214.19;;;18.31;31.91
13387;BME280;6763;48.524;9.044;2023-04-24T11:45:02;97214.06;;;18.48;31.74
13387;BME280;6763;48.524;9.044;2023-04-24T11:47:33;97223.56;;;18.65;31.51
13387;BME280;6763;48.524;9.044;2023-04-24T11:50:30;97227.59;;;18.84;31.27
13387;BME280;6763;48.524;9.044;2023-04-24T11:53:09;97226.28;;;18.91;30.59
13387;BME280;6763;48.524;9.044;2023-04-24T11:55:38;97231.72;;;18.88;30.19
13387;BME280;6763;48.524;9.044;2023-04-24T11:58:05;97232.84;;;18.84;30.57
13387;BME280;6763;48.524;9.044;2023-04-24T12:00:33;97241.25;;;18.89;30.45
13387;BME280;6763;48.524;9.044;2023-04-24T12:03:08;97234.81;;;18.95;30.17
13387;BME280;6763;48.524;9.044;2023-04-24T12:05:34;97230.88;;;18.88;30.50
13387;BME280;6763;48.524;9.044;2023-04-24T12:08:00;97237.69;;;18.76;30.73
13387;BME280;6763;48.524;9.044;2023-04-24T12:10:29;97231.19;;;18.53;31.18
13387;BME280;6763;48.524;9.044;2023-04-24T12:12:56;97237.38;;;18.37;32.16
13387;BME280;6763;48.524;9.044;2023-04-24T12:15:22;97255.25;;;18.30;31.59
13387;BME280;6763;48.524;9.044;2023-04-24T12:17:50;97249.59;;;18.22;31.58
13387;BME280;6763;48.524;9.044;2023-04-24T12:20:16;97243.63;;;18.20;31.77
13387;BME280;6763;48.524;9.044;2023-04-24T12:22:52;97262.47;;;18.11;31.80
13387;BME280;6763;48.524;9.044;2023-04-24T12:25:21;97251.59;;;18.03;32.16
13387;BME280;6763;48.524;9.044;2023-04-24T12:28:07;97261.00;;;17.91;32.07
13387;BME280;6763;48.524;9.044;2023-04-24T12:30:41;97265.97;;;17.80;32.58
13387;BME280;6763;48.524;9.044;2023-04-24T12:33:13;97265.13;;;17.80;32.59
13387;BME280;6763;48.524;9.044;2023-04-24T12:35:42;97254.66;;;17.80;32.57
13387;BME280;6763;48.524;9.044;2023-04-24T12:38:15;97254.16;;;17.73;32.42
13387;BME280;6763;48.524;9.044;2023-04-24T12:40:41;97255.81;;;17.74;32.39
13387;BME280;6763;48.524;9.044;2023-04-24T12:43:18;97249.09;;;17.70;31.78
13387;BME280;6763;48.524;9.044;2023-04-24T12:45:48;97261.00;;;17.76;31.74
13387;BME280;6763;48.524;9.044;2023-04-24T12:48:22;97257.94;;;17.83;31.96
13387;BME280;6763;48.524;9.044;2023-04-24T12:50:51;97254.31;;;17.86;33.32
13387;BME280;6763;48.524;9.044;2023-04-24T12:53:17;97245.19;;;17.93;32.67
13387;BME280;6763;48.524;9.044;2023-04-24T12:55:43;97246.28;;;18.05;32.79
13387;BME280;6763;48.524;9.044;2023-04-24T12:58:09;97247.84;;;18.23;32.43
13387;BME280;6763;48.524;9.044;2023-04-24T13:00:35;97242.44;;;18.40;31.83
13387;BME280;6763;48.524;9.044;2023-04-24T13:03:01;97235.16;;;18.45;31.53
13387;BME280;6763;48.524;9.044;2023-04-24T13:05:27;97237.22;;;18.40;31.87
13387;BME280;6763;48.524;9.044;2023-04-24T13:07:52;97245.72;;;18.73;31.67
13387;BME280;6763;48.524;9.044;2023-04-24T13:10:18;97236.97;;;19.02;30.55
13387;BME280;6763;48.524;9.044;2023-04-24T13:12:44;97246.03;;;18.97;30.53
13387;BME280;6763;48.524;9.044;2023-04-24T13:15:11;97240.41;;;18.89;30.40
13387;BME280;6763;48.524;9.044;2023-04-24T13:17:36;97235.13;;;18.61;30.24
13387;BME280;6763;48.524;9.044;2023-04-24T13:20:02;97241.97;;;18.49;30.71
13387;BME280;6763;48.524;9.044;2023-04-24T13:22:28;97242.97;;;18.46;30.77
13387;BME280;6763;48.524;9.044;2023-04-24T13:24:53;97237.59;;;18.34;31.06
13387;BME280;6763;48.524;9.044;2023-04-24T13:27:18;97236.91;;;18.30;31.04
13387;BME280;6763;48.524;9.044;2023-04-24T13:29:44;97230.81;;;18.30;31.31